Tiempo atmosférico en la estación meteorológica de Llerena, Badajoz (655 m.)



Fecha
DESCASC
Temp. máxima en grados centígrados (hora)
DESCASC
Temp. mínima en grados centígrados (hora)
DESCASC
Temp. media en grados centígrados
DESCASC
Racha de viento máxima en m/sg (hora)
DESCASC
Velocidad máxima media en intervalos de 10 minutos(hora)
DESCASC
Precipitaciones diarias en mm
DESCASC
Precipitaciones de 00:00 a 06:00 en mm
DESCASC
Precipitaciones de 06:00 a 12:00 en mm
DESCASC
Precipitaciones de 12:00 a 18:00 en mm
DESCASC
Precipitaciones de 18:00 a 24:00 en mm
DESCASC
10-08-2019 32.4 (18:20) 16.5 (00:00) 24.5 -- (--) -- (--) 0 0 0 0 0
24-08-2019 36.3 (17:40) 21.6 (00:00) 28.9 10 (04:50) 8.06 (04:50) 0 0 0 0 0
23-08-2019 35.4 (18:50) 21.5 (00:00) 28.5 14.17 (05:40) 11.39 (05:40) 0 0 0 0 0
22-08-2019 34.6 (17:10) 21.5 (00:00) 28 10.28 (23:30) 8.61 (23:50) 0 0 0 0 0
21-08-2019 34.5 (17:00) 22.1 (00:00) 28.3 10.56 (07:20) 8.33 (07:40) 0 0 0 0 0
20-08-2019 33.1 (18:10) 14.7 (00:00) 23.9 6.39 (00:30) 4.17 (00:30) 0 0 0 0 0
19-08-2019 33.7 (16:10) 17.4 (00:00) 25.6 11.39 (17:30) 6.67 (20:00) 0 0 0 0 0
18-08-2019 35.3 (17:30) 20.9 (00:00) 28.1 9.72 (19:20) 6.39 (17:50) 0 0 0 0 0
17-08-2019 38.8 (17:30) 22.8 (00:00) 30.8 10.28 (19:40) 6.67 (20:00) 0 0 0 0 0
16-08-2019 38.6 (16:10) 22.2 (00:00) 30.4 10.28 (17:10) 5.28 (20:20) 0 0 0 0 0
15-08-2019 37.4 (17:10) 21 (00:00) 29.2 7.5 (17:20) 3.89 (17:20) 0 0 0 0 0
14-08-2019 35.4 (16:40) 18.7 (00:00) 27.1 7.5 (16:30) 3.61 (18:40) 0 0 0 0 0
13-08-2019 33.4 (17:00) 16.3 (00:00) 24.9 -- (--) -- (--) 0 0 0 0 0
12-08-2019 28.6 (17:20) 12.2 (00:00) 20.4 -- (--) -- (--) 0 0 0 0 0
11-08-2019 28 (14:40) 13.8 (00:00) 20.9 -- (--) -- (--) 0 0 0 0 0
26-07-2019 29.1 (16:40) 16.2 (00:00) 22.7 -- (--) -- (--) 0 0 0 0 0
09-08-2019 33.8 (15:30) 17.9 (00:00) 25.8 -- (--) -- (--) 0 0 0 0 0
08-08-2019 36.2 (17:40) 18 (00:00) 27.1 -- (--) -- (--) 0 0 0 0 0
07-08-2019 29 (13:10) 18.3 (00:00) 23.6 -- (--) -- (--) 0 0 0 0 0
06-08-2019 37.1 (16:40) 20 (00:00) 28.5 -- (--) -- (--) 0 0 0 0 0
05-08-2019 37.6 (17:40) 17.9 (00:00) 27.7 -- (--) -- (--) 0 0 0 0 0
04-08-2019 35.6 (17:30) 19.3 (00:00) 27.4 -- (--) -- (--) 0 0 0 0 0
03-08-2019 36.1 (16:40) 19.6 (00:00) 27.8 -- (--) -- (--) 0 0 0 0 0
02-08-2019 36.6 (16:30) 17.2 (00:00) 26.9 -- (--) -- (--) 0 0 0 0 0
01-08-2019 -- (--) -- (--) -- -- (--) -- (--) 0 0 0 0 0
31-07-2019 -- (--) -- (--) -- -- (--) -- (--) 0 0 0 0 0
30-07-2019 -- (--) -- (--) -- -- (--) -- (--) 0 0 0 0 0
29-07-2019 -- (--) -- (--) -- -- (--) -- (--) 0 0 0 0 0
28-07-2019 31.3 (16:30) 14.9 (00:00) 23.1 -- (--) -- (--) 0 0 0 0 0
27-07-2019 26.2 (16:00) 13.1 (00:00) 19.7 -- (--) -- (--) 0 0 0 0 0

Gráficas

Temp. máximas Temp. mínimas Temp. medias Precipitaciones Rachas de viento máximas Velocidades máximas media en intervalos de 10 minutos

Datos horarios

Fecha y hora oficial Temperatura (ºC) Velocidad del viento (km/h) Dirección del viento Racha (km/h) Dirección de racha Precipitación (mm) Presión (hPa) Tendencia (hPa) Humedad (%)
2019-08-24 23:00:00 28.5 23 Sur 31 Sur 0 942.1 1 29
2019-08-24 22:00:00 29.4 19 Sur 30 Sur 0 941.7 0.2 24
2019-08-24 21:00:00 31.1 19 Sur 25 Sur 0 941.2 -0.7 22
2019-08-24 20:00:00 33.4 6 Sudeste 17 Sudoeste 0 941.1 -1.1 15
2019-08-24 19:00:00 35 9 Sur 18 Sur 0 941.5 -1.3 14
2019-08-24 18:00:00 34.7 9 Este 20 Sur 0 941.9 -1.3 14
2019-08-24 17:00:00 35.8 10 Sur 20 Sudeste 0 942.2 -1.5 14
2019-08-24 16:00:00 35.1 10 Sudeste 20 Sudeste 0 942.8 -1.2 15
2019-08-24 15:00:00 33.8 12 Este 22 Este 0 943.2 -0.8 17
2019-08-24 14:00:00 34 12 Sur 25 Sudoeste 0 943.7 -0.1 19
2019-08-24 13:00:00 32.3 13 Sur 26 Sudoeste 0 944 0.5 22
2019-08-24 12:00:00 30.9 19 Sur 31 Sur 0 944 0.8 26
2019-08-24 11:00:00 28.7 23 Sur 32 Sur 0 943.8 0.9 26
2019-08-24 10:00:00 27.6 19 Sur 25 Sur 0 943.5 0.9 31
2019-08-24 09:00:00 23.9 3 Norte 20 Este 0 943.2 0.7 43
2019-08-24 08:00:00 22.4 7 Este 21 Sur 0 942.9 0.2 46
2019-08-24 07:00:00 23.1 4 Este 33 Sur 0 942.6 -0.4 44
2019-08-24 06:00:00 24 24 Sur 34 Sur 0 942.5 -0.2 43
2019-08-24 05:00:00 23.7 25 Sur 36 Sur 0 942.7 0.1 46
2019-08-24 04:00:00 23.8 3 Sudoeste 24 Sur 0 943 0.3 42
2019-08-24 03:00:00 25.3 23 Sur 32 Sur 0 942.7 0 32
2019-08-24 02:00:00 26.5 22 Sur 31 Sur 0 942.6 0 27
2019-08-24 01:00:00 27.4 18 Sur 26 Sur 0 942.7 0.6 26
2019-08-24 00:00:00 27.5 16 Sudoeste 24 Sur 0 942.7 1.1 26
2019-08-23 23:00:00 28 16 Sur 29 Sur 0 942.6 1.1 25
2019-08-23 22:00:00 29.1 22 Sur 29 Sur 0 942.1 0.2 25
2019-08-23 21:00:00 30.7 17 Sur 23 Sudoeste 0 941.6 -0.4 24
2019-08-23 20:00:00 32.6 7 Nordeste 15 Nordeste 0 941.5 -0.9 23
2019-08-23 19:00:00 34.1 12 Este 24 Sudeste 0 941.9 -1 20
2019-08-23 18:00:00 34.4 8 Noroeste 20 Este 0 942 -1.4 18
2019-08-23 17:00:00 34.4 11 Sudeste 24 Sudeste 0 942.4 -1.4 18
2019-08-23 16:00:00 32.8 15 Este 30 Este 0 942.9 -1.4 20
2019-08-23 15:00:00 33.3 11 Sudeste 28 Este 0 943.4 -1 21
2019-08-23 14:00:00 33 15 Sudeste -- -- 0 943.8 -0.6 21
2019-08-23 13:00:00 31.3 17 Sudeste 37 Sudeste 0 944.3 0.2 24
2019-08-23 12:00:00 30.1 22 Este 32 Sudeste 0 944.4 0.6 26
2019-08-23 11:00:00 27.8 17 Este 26 Este 0 944.4 1 42
2019-08-23 10:00:00 24.2 21 Este 26 Este 0 944.1 1.1 55
2019-08-23 09:00:00 23.1 14 Este 31 Sur 0 943.8 1.1 57
2019-08-23 08:00:00 22.1 22 Sudeste 31 Sur 0 943.4 0.8 54
2019-08-23 07:00:00 22.7 23 Sur 45 Sur 0 943 0.3 48
2019-08-23 06:00:00 23.2 37 Sur 51 Sur 0 942.7 -0.3 43
2019-08-23 05:00:00 22.9 28 Sur 37 Sur 0 942.6 -0.2 52
2019-08-23 04:00:00 24.3 26 Sur 37 Sur 0 942.7 0.2 48
2019-08-23 03:00:00 23.7 26 Sur 37 Sur 0 943 0.4 56
2019-08-23 02:00:00 24.8 28 Sur 39 Sur 0 942.8 0.1 51
2019-08-23 01:00:00 25.6 30 Sur 41 Sur 0 942.5 0 47
2019-08-23 00:00:00 26.6 28 Sur 37 Sur 0 942.6 0.4 45
2019-08-22 23:00:00 27.6 21 Sur 27 Sur 0 942.7 0.8 40
2019-08-22 22:00:00 28.4 20 Sur 27 Sudoeste 0 942.5 0.6 39
2019-08-22 21:00:00 29.8 15 Sur 24 Sur 0 942.2 0.2 34
2019-08-22 20:00:00 31.8 9 Este 22 Sudeste 0 941.9 -0.6 25
2019-08-22 19:00:00 33.3 12 Sudeste 22 Sudeste 0 941.9 -0.9 25
2019-08-22 18:00:00 33.5 10 Sudeste 24 Este 0 942 -1.4 24
2019-08-22 17:00:00 34.4 13 Sudeste 31 Este 0 942.5 -1.3 24
2019-08-22 16:00:00 33.5 17 Este 28 Este 0 942.8 -1.5 23
2019-08-22 15:00:00 32.7 19 Este 30 Nordeste 0 943.4 -1.2 23
2019-08-22 14:00:00 31.3 15 Este 30 Este 0 943.8 -0.7 32
2019-08-22 13:00:00 29.7 17 Este 34 Nordeste 0 944.3 0.2 39
2019-08-22 12:00:00 28.7 15 Este 24 Este 0 944.6 0.8 45
2019-08-22 11:00:00 27.3 14 Este 21 Este 0 944.5 1.1 48
2019-08-22 10:00:00 26.8 9 Sudeste 30 Sudoeste 0 944.1 1.2 50
2019-08-22 09:00:00 23.7 13 Sur 25 Sur 0 943.8 0.9 57
2019-08-22 08:00:00 21.7 10 Sudoeste 23 Sur 0 943.4 0.2 55
2019-08-22 07:00:00 21.6 10 Sur 22 Sur 0 942.9 -0.3 67
2019-08-22 06:00:00 21.7 5 Noroeste 22 Sur 0 942.9 -0.2 67
2019-08-22 05:00:00 22.3 18 Sur 30 Sur 0 943.2 -0.1 64
2019-08-22 04:00:00 22.8 6 Sur 11 Sudoeste 0 943.2 -0.3 51
2019-08-22 03:00:00 23.8 5 Sudeste 6 Sudeste 0 943.1 -0.2 31
2019-08-22 02:00:00 24.1 4 Sudeste 12 Sudeste 0 943.3 0.2 25
2019-08-22 01:00:00 25.3 8 Sudeste 15 Sudeste 0 943.5 0.9 22
2019-08-22 00:00:00 24.6 6 Sudeste 10 Este 0 943.3 1.3 23
2019-08-21 23:00:00 25.8 3 Sudeste 13 Nordeste 0 943.1 1.4 22
2019-08-21 22:00:00 28.2 6 Nordeste 18 Norte 0 942.6 0.9 20
2019-08-21 21:00:00 30.1 8 Norte 17 Norte 0 942 0.3 19
2019-08-21 20:00:00 32.1 9 Noroeste 18 Norte 0 941.7 -0.3 15
2019-08-21 19:00:00 32.9 6 Nordeste 21 Norte 0 941.7 -0.8 15
2019-08-21 18:00:00 33.8 8 Norte 23 Nordeste 0 941.7 -1.3 14
2019-08-21 17:00:00 34.3 6 Nordeste -- -- 0 942 -1.1 15
2019-08-21 16:00:00 33 8 Norte 21 Norte 0 942.5 -1.2 19
2019-08-21 15:00:00 32.8 7 Oeste 19 Oeste 0 943 -0.9 20
2019-08-21 14:00:00 32.3 7 Noroeste 23 Sur 0 943.1 -0.8 21
2019-08-21 13:00:00 32.1 7 Sudoeste 16 Sudoeste 0 943.7 0.2 21
2019-08-21 12:00:00 30 12 Sudoeste 17 Sur 0 943.9 0.8 23
2019-08-21 11:00:00 28 10 Sudoeste 24 Sudoeste 0 943.9 1.4 29
2019-08-21 10:00:00 25.3 19 Sudoeste 30 Sudoeste 0 943.5 1.4 28
2019-08-21 09:00:00 24.2 23 Sudoeste 37 Sur 0 943.1 1 23
2019-08-21 08:00:00 22.9 28 Sur 38 Sur 0 942.5 0.4 20
2019-08-21 07:00:00 22.7 28 Sur 36 Sur 0 942.1 0 25
2019-08-21 06:00:00 23.7 24 Sur 33 Sur 0 942.1 -0.2 23
2019-08-21 05:00:00 23.8 24 Sur 31 Sur 0 942.1 -0.2 26
2019-08-21 04:00:00 23.2 17 Sur 23 Sur 0 942.1 -0.3 27
2019-08-21 03:00:00 22.8 6 Sudoeste 9 Sudoeste 0 942.3 -0.1 26
2019-08-21 02:00:00 23.4 5 Sudoeste 8 Sudoeste 0 942.3 0.1 24
2019-08-21 01:00:00 23.9 4 Oeste 5 Oeste 0 942.4 0.5 25
2019-08-21 00:00:00 24.4 4 Noroeste 9 Sudoeste 0 942.4 0.8 24
2019-08-20 23:00:00 25.1 4 Noroeste 9 Noroeste 0 942.2 0.6 23
2019-08-20 22:00:00 26.1 5 Noroeste 10 Noroeste 0 941.9 0.4 23
2019-08-20 21:00:00 29 4 Norte 12 Nordeste 0 941.6 -0.1 18
2019-08-20 20:00:00 31.1 7 Noroeste 14 Norte 0 941.6 -0.5 14
2019-08-20 19:00:00 32.2 5 Noroeste 15 Noroeste 0 941.5 -0.9 13
2019-08-20 18:00:00 32.4 6 Noroeste 17 Nordeste 0 941.7 -1.2 11
2019-08-20 17:00:00 32.3 5 Norte 16 Noroeste 0 942.1 -0.9 11
2019-08-20 16:00:00 30.7 9 Este 15 Nordeste 0 942.4 -0.9 10
2019-08-20 15:00:00 30.5 8 Noroeste 18 Noroeste 0 942.9 -0.3 10
2019-08-20 14:00:00 28.7 5 Sudeste 15 Nordeste 0 943 0.3 12
2019-08-20 13:00:00 26.6 5 Nordeste 15 Norte 0 943.3 1.1 20
2019-08-20 12:00:00 24.2 5 Nordeste 11 Norte 0 943.2 1.3 25
2019-08-20 11:00:00 21.6 4 Norte 10 Nordeste 0 942.7 1.1 35
2019-08-20 10:00:00 18.7 4 Norte 10 Norte 0 942.2 0.9 42
2019-08-20 09:00:00 14.8 4 Noroeste 11 Oeste 0 941.9 0.9 51
2019-08-20 08:00:00 15.2 9 Sudoeste 14 Oeste 0 941.6 0.5 47
2019-08-20 07:00:00 15.2 9 Sudoeste 16 Oeste 0 941.3 0.1 47
2019-08-20 06:00:00 15.8 10 Sudoeste 18 Sudoeste 0 941 -0.8 44
2019-08-20 05:00:00 16.2 13 Sudoeste 20 Oeste 0 941.1 -0.9 47
2019-08-20 04:00:00 17.3 13 Oeste 19 Oeste 0 941.2 -0.8 44
2019-08-20 03:00:00 18 11 Oeste 16 Oeste 0 941.8 0 46
2019-08-20 02:00:00 18.7 6 Oeste 14 Noroeste 0 942 0.4 39
2019-08-20 01:00:00 19.9 10 Noroeste 23 Noroeste 0 942 1.1 42
2019-08-20 00:00:00 21.8 11 Noroeste 27 Noroeste 0 941.8 1.2 38
2019-08-19 23:00:00 23.1 10 Oeste 20 Oeste 0 941.6 1.2 18
2019-08-19 22:00:00 24.8 13 Oeste 29 Oeste 0 940.9 0.6 15
2019-08-19 21:00:00 27 17 Oeste 34 Noroeste 0 940.6 0.3 14
2019-08-19 20:00:00 29.2 24 Noroeste 37 Noroeste 0 940.4 -0.1 14
2019-08-19 19:00:00 31.4 21 Noroeste 32 Noroeste 0 940.3 -0.9 17
2019-08-19 18:00:00 32.2 23 Noroeste -- -- 0 940.3 -1.2 17
2019-08-19 17:00:00 33.4 19 Noroeste 34 Noroeste 0 940.5 -1.2 15
2019-08-19 16:00:00 33.2 -- -- -- -- 0 941.2 -0.7 15
2019-08-19 15:00:00 32.8 13 Noroeste 29 Noroeste 0 941.5 -0.4 15
2019-08-19 14:00:00 32.5 8 Sudoeste 26 Oeste 0 941.7 -0.1 18
2019-08-19 13:00:00 31.1 10 Sur 23 Oeste 0 941.9 0.3 18
2019-08-19 12:00:00 29.6 7 Oeste 15 Noroeste 0 941.9 0.4 24
2019-08-19 11:00:00 26.3 4 Norte 8 Oeste 0 941.8 0 23
2019-08-19 10:00:00 23.1 4 Noroeste 10 Oeste 0 941.6 0.3 50
2019-08-19 09:00:00 20.1 6 Oeste 8 Oeste 0 941.5 0.5 69
2019-08-19 08:00:00 17.7 4 Oeste 10 Oeste 0 941.8 0.6 83
2019-08-19 07:00:00 18.1 9 Sudoeste 14 Oeste 0 941.3 -0.1 79
2019-08-19 06:00:00 18.5 12 Oeste 16 Oeste 0 941 -0.9 82
2019-08-19 05:00:00 18.8 9 Oeste 20 Noroeste 0 941.2 -1.1 77
2019-08-19 04:00:00 19.4 7 Noroeste 19 Noroeste 0 941.4 -1.1 77
2019-08-19 03:00:00 20.3 10 Oeste 16 Noroeste 0 941.9 -0.2 75
2019-08-19 02:00:00 21.4 6 Noroeste 24 Noroeste 0 942.3 0.7 71
2019-08-19 01:00:00 22.6 13 Noroeste 32 Noroeste 0 942.5 1.5 65
2019-08-19 00:00:00 24.2 14 Noroeste 21 Noroeste 0 942.1 1.8 49
2019-08-18 23:00:00 25.5 14 Noroeste 19 Noroeste 0 941.6 1.5 42
2019-08-18 22:00:00 26.4 12 Noroeste 27 Noroeste 0 941 0.9 33
2019-08-18 21:00:00 28.5 19 Noroeste 32 Noroeste 0 940.3 0 28
2019-08-18 20:00:00 31.1 21 Noroeste 35 Noroeste 0 940.1 -0.2 24
2019-08-18 19:00:00 33.5 18 Noroeste 32 Noroeste 0 940.1 -0.6 13
2019-08-18 18:00:00 34.3 19 Noroeste 33 Noroeste 0 940.3 -0.6 13
2019-08-18 17:00:00 34.2 17 Oeste -- -- 0 940.3 -0.8 12
2019-08-18 16:00:00 34.6 17 Oeste 31 Oeste 0 940.7 -0.8 13
2019-08-18 15:00:00 34.1 12 Oeste 26 Sudoeste 0 940.9 -0.7 14
2019-08-18 14:00:00 34.3 11 Oeste 24 Oeste 0 941.1 -0.2 15
2019-08-18 13:00:00 32.3 9 Noroeste 22 Oeste 0 941.5 0.6 17
2019-08-18 12:00:00 30.6 8 Oeste 15 Noroeste 0 941.6 1.3 21
2019-08-18 11:00:00 27.4 9 Oeste 20 Noroeste 0 941.3 1.4 31
2019-08-18 10:00:00 26.2 11 Noroeste 16 Noroeste 0 940.9 1 33
2019-08-18 09:00:00 23.8 6 Oeste 11 Oeste 0 940.3 0.4 45
2019-08-18 08:00:00 21.5 7 Oeste 9 Oeste 0 939.9 -0.1 52
2019-08-18 07:00:00 21 7 Sudoeste 13 Sudoeste 0 939.9 -0.4 56
2019-08-18 06:00:00 21 9 Sudoeste 12 Oeste 0 939.9 -0.8 56
2019-08-18 05:00:00 21.5 8 Sudoeste 12 Sudoeste 0 940 -1 51
2019-08-18 04:00:00 22.2 8 Sudoeste 11 Oeste 0 940.3 -0.3 40
2019-08-18 03:00:00 22.6 6 Sudoeste 10 Oeste 0 940.7 0.1 46
2019-08-18 02:00:00 23.9 6 Noroeste 12 Oeste 0 941 0.4 24
2019-08-18 01:00:00 25.9 10 Oeste 15 Oeste 0 940.6 0.4 18
2019-08-18 00:00:00 26.7 10 Oeste 14 Oeste 0 940.6 0.9 18
2019-08-17 23:00:00 27.6 9 Oeste 14 Oeste 0 940.6 1.2 14
2019-08-17 22:00:00 29.2 10 Oeste 27 Oeste 0 940.2 0.7 15
2019-08-17 21:00:00 31.9 18 Oeste 33 Oeste 0 939.7 -0.2 15
2019-08-17 20:00:00 34.7 24 Noroeste -- -- 0 939.4 -0.8 15
2019-08-17 19:00:00 37.3 -- -- -- -- 0 939.5 -1.2 13
2019-08-17 18:00:00 38.4 14 Sudoeste 35 Oeste 0 939.9 -1.4 13
2019-08-17 17:00:00 38 13 Oeste 26 Sudoeste 0 940.2 -1.6 13
2019-08-17 16:00:00 37.9 15 Sudoeste 28 Sur 0 940.7 -1.6 13
2019-08-17 15:00:00 37.4 17 Sudoeste 32 Sudoeste 0 941.3 -1.2 13
2019-08-17 14:00:00 36.4 12 Sudoeste 29 Sudoeste 0 941.8 -0.8 17
2019-08-17 13:00:00 35.3 14 Sudoeste 28 Sur 0 942.3 -0.3 18
2019-08-17 12:00:00 33.2 15 Sudoeste 22 Sudoeste 0 942.5 0 20
2019-08-17 11:00:00 32.1 13 Sur 19 Sur 0 942.6 0.5 22
2019-08-17 10:00:00 28 3 Norte 8 Este 0 942.6 0.8 26
2019-08-17 09:00:00 23.9 6 Sudeste 10 Norte 0 942.5 0.6 32
2019-08-17 08:00:00 23.5 4 Este 9 Sudoeste 0 942.1 -0.1 35
2019-08-17 07:00:00 23 7 Sudoeste 10 Oeste 0 941.8 -0.6 32
2019-08-17 06:00:00 23 10 Oeste 12 Oeste 0 941.9 -0.8 37
2019-08-17 05:00:00 23 10 Sudoeste 12 Sudoeste 0 942.2 -0.8 40
2019-08-17 04:00:00 23.2 10 Sudoeste 14 Oeste 0 942.4 -0.8 40
2019-08-17 03:00:00 23.3 8 Oeste 10 Oeste 0 942.7 -0.3 36
2019-08-17 02:00:00 24.3 6 Oeste 10 Noroeste 0 943 0 32
2019-08-17 01:00:00 25.4 8 Noroeste 13 Noroeste 0 943.2 1.1 32
2019-08-17 00:00:00 27.1 6 Noroeste 13 Noroeste 0 943 1.4 28
2019-08-16 23:00:00 28.6 8 Sudoeste 15 Oeste 0 943 1.7 25
2019-08-16 22:00:00 30.3 11 Oeste 24 Noroeste 0 942.1 0.8 21
2019-08-16 21:00:00 33.1 16 Oeste 27 Oeste 0 941.6 0.1 17
2019-08-16 20:00:00 35.6 16 Noroeste 28 Noroeste 0 941.3 -0.7 14
2019-08-16 19:00:00 36.8 18 Noroeste 28 Oeste 0 941.3 -1.1 15
2019-08-16 18:00:00 37.5 18 Noroeste 37 Sudoeste 0 941.5 -1.3 15
2019-08-16 17:00:00 38.2 -- -- -- -- 0 942 -1.2 14
2019-08-16 16:00:00 38.3 14 Sudoeste -- -- 0 942.4 -1.3 14
2019-08-16 15:00:00 37.7 16 Sur 30 Sur 0 942.8 -1.1 15
2019-08-16 14:00:00 36.5 14 Sudoeste 33 Sudoeste 0 943.2 -0.6 16
2019-08-16 13:00:00 35.2 13 Sudoeste 26 Sudoeste 0 943.7 0 19
2019-08-16 12:00:00 33.7 13 Sudoeste 18 Sudoeste 0 943.9 0.6 22
2019-08-16 11:00:00 31.6 5 Sur 12 Nordeste 0 943.8 0.5 29
2019-08-16 10:00:00 29 2 Oeste 12 Oeste 0 943.7 0.8 33
2019-08-16 09:00:00 24.9 8 Sudoeste 10 Sudoeste 0 943.3 0.6 44
2019-08-16 08:00:00 22.7 3 Oeste 8 Oeste 0 943.3 0.3 48
2019-08-16 07:00:00 22.4 6 Oeste 9 Oeste 0 942.9 -0.4 48
2019-08-16 06:00:00 23 7 Oeste 11 Oeste 0 942.7 -0.8 43
2019-08-16 05:00:00 23.6 5 Oeste 14 Oeste 0 943 -0.8 40
2019-08-16 04:00:00 24.4 10 Oeste 14 Oeste 0 943.3 -0.6 38
2019-08-16 03:00:00 24.4 9 Sudoeste 14 Oeste 0 943.5 -0.3 37
2019-08-16 02:00:00 25 9 Oeste 13 Oeste 0 943.8 0.4 36
2019-08-16 01:00:00 26.3 7 Oeste 19 Noroeste 0 943.9 0.9 32
2019-08-16 00:00:00 28.1 8 Noroeste 18 Noroeste 0 943.8 1.3 26
2019-08-15 23:00:00 28.6 6 Noroeste 10 Noroeste 0 943.4 1 23
2019-08-15 22:00:00 30.2 7 Noroeste 19 Norte 0 943 0.4 21
2019-08-15 21:00:00 32.7 12 Norte 23 Norte 0 942.5 0 18
2019-08-15 20:00:00 34.9 8 Norte 21 Noroeste 0 942.4 -0.5 14
2019-08-15 19:00:00 35.7 12 Norte 21 Noroeste 0 942.6 -0.9 14
2019-08-15 18:00:00 36.5 8 Norte 27 Noroeste 0 942.5 -1.3 14
2019-08-15 17:00:00 37.1 9 Noroeste 22 Noroeste 0 942.9 -1.3 13
2019-08-15 16:00:00 36.2 9 Nordeste 26 Noroeste 0 943.5 -1 13
2019-08-15 15:00:00 35.5 7 Norte 23 Norte 0 943.8 -0.9 14
2019-08-15 14:00:00 35.4 8 Norte 18 Norte 0 944.2 -0.5 14
2019-08-15 13:00:00 33.9 6 Nordeste 14 Norte 0 944.5 0 15
2019-08-15 12:00:00 32.3 5 Nordeste 10 Norte 0 944.7 0.2 23
2019-08-15 11:00:00 29.4 4 Norte 8 Noroeste 0 944.7 0.5 34
2019-08-15 10:00:00 25.9 4 Norte 10 Noroeste 0 944.5 0.6 47
2019-08-15 09:00:00 24.1 3 Noroeste 8 Noroeste 0 944.5 0.7 52
2019-08-15 08:00:00 21.2 3 Oeste 10 Noroeste 0 944.2 0.5 60
2019-08-15 07:00:00 21.3 4 Noroeste 11 Noroeste 0 943.9 0.1 58
2019-08-15 06:00:00 21.4 4 Sudoeste 10 Noroeste 0 943.8 -0.3 57
2019-08-15 05:00:00 22 5 Oeste 10 Oeste 0 943.7 -0.8 53
2019-08-15 04:00:00 22.5 7 Oeste 12 Noroeste 0 943.8 -0.8 49
2019-08-15 03:00:00 22.7 5 Oeste 10 Oeste 0 944.1 -0.3 46
2019-08-15 02:00:00 23.5 3 Oeste 11 Noroeste 0 944.5 0.2 37
2019-08-15 01:00:00 24.7 8 Noroeste 23 Noroeste 0 944.6 0.8 29
2019-08-15 00:00:00 26.2 6 Noroeste 8 Noroeste 0 944.4 1 20
2019-08-14 23:00:00 26.9 4 Noroeste 12 Norte 0 944.3 1 19
2019-08-14 22:00:00 28.5 7 Norte 17 Norte 0 943.8 0.4 16
2019-08-14 21:00:00 30.9 8 Norte 22 Norte 0 943.4 -0.3 14
2019-08-14 20:00:00 33 8 Norte 26 Noroeste 0 943.3 -0.6 12
2019-08-14 19:00:00 33.9 9 Norte 24 Norte 0 943.4 -0.8 11
2019-08-14 18:00:00 34.6 8 Noroeste 24 Noroeste 0 943.7 -1.1 11
2019-08-14 17:00:00 34.8 9 Norte 27 Noroeste 0 943.9 -1.4 11
2019-08-14 16:00:00 35.1 9 Oeste 25 Norte 0 944.2 -1.4 11
2019-08-14 15:00:00 34.2 7 Sudoeste 19 Este 0 944.8 -0.8 11
2019-08-14 14:00:00 32.6 7 Nordeste 21 Noroeste 0 945.3 -0.1 11
2019-08-14 13:00:00 32.5 5 Oeste 13 Norte 0 945.6 0.4 12
2019-08-14 12:00:00 31 4 Norte 10 Nordeste 0 945.6 0.7 13
2019-08-14 11:00:00 29.3 5 Este 9 Este 0 945.4 1 15
2019-08-14 10:00:00 27.2 2 Este 5 Norte 0 945.2 1 21
2019-08-14 09:00:00 24.1 2 Oeste 6 Oeste 0 944.9 0.6 24
2019-08-14 08:00:00 20.1 2 Oeste 6 Sudeste 0 944.4 0.2 29
2019-08-14 07:00:00 19 2 Este 6 Sur 0 944.2 -0.2 35
2019-08-14 06:00:00 19.4 3 Oeste 6 Noroeste 0 944.3 0 45
2019-08-14 05:00:00 20.2 4 Noroeste 8 Noroeste 0 944.2 -0.3 39
2019-08-14 04:00:00 20.8 4 Noroeste 11 Oeste 0 944.4 0.1 30
2019-08-14 03:00:00 21.9 9 Oeste 11 Oeste 0 944.3 0.3 21
2019-08-14 02:00:00 23.5 5 Noroeste 8 Sudoeste 0 944.5 0.6 18
2019-08-14 01:00:00 23.3 3 Sur 5 Sudeste 0 944.3 1.2 17
2019-08-14 00:00:00 23.6 5 Sudeste 8 Nordeste 0 944 1.3 15
2019-08-13 23:00:00 24.2 4 Sudeste 12 Norte 0 943.9 1.4 14
2019-08-13 22:00:00 26.7 8 Norte 16 Norte 0 943.1 0.5 13
2019-08-13 21:00:00 29.3 8 Norte 19 Norte 0 942.7 -0.1 11
2019-08-13 20:00:00 31.3 8 Norte 20 Noroeste 0 942.5 -0.4 9
2019-08-13 19:00:00 32.5 8 Noroeste 19 Noroeste 0 942.6 -0.8 9
2019-08-13 18:00:00 32.1 8 Nordeste 24 Noroeste 0 942.8 -1 10
2019-08-13 17:00:00 33 9 Noroeste 23 Norte 0 942.9 -1.1 9
2019-08-13 16:00:00 32.7 5 Sudeste 20 Nordeste 0 943.4 -0.9 10
2019-08-13 15:00:00 31.1 7 Norte 21 Norte 0 943.8 -0.6 11
2019-08-13 14:00:00 31.1 7 Nordeste 13 Este 0 944 -0.1 12
2019-08-13 13:00:00 29.8 6 Norte 15 Nordeste 0 944.3 0.6 13
2019-08-13 12:00:00 27.4 5 Nordeste -- -- 0 944.4 0.9 16
2019-08-13 11:00:00 24.7 -- -- -- -- -- 944.1 0.9 21
2019-08-13 10:00:00 22.1 -- -- -- -- 0 943.7 1 26
2019-08-13 09:00:00 18.7 -- -- -- -- 0 943.5 1 33
2019-08-13 08:00:00 16.5 -- -- -- -- 0 943.2 0.6 36
2019-08-13 07:00:00 16.6 -- -- -- -- 0 942.7 -0.3 33
2019-08-13 06:00:00 16.8 -- -- -- -- 0 942.5 -1 31
2019-08-13 05:00:00 17.1 -- -- -- -- 0 942.6 -1.2 29
2019-08-13 04:00:00 18.2 -- -- -- -- 0 943 -0.7 24
2019-08-13 03:00:00 18.7 -- -- -- -- 0 943.5 0.1 22
2019-08-13 02:00:00 19.9 -- -- -- -- 0 943.8 0.5 22
2019-08-13 01:00:00 20.6 -- -- -- -- 0 943.7 1 22
2019-08-13 00:00:00 21.4 -- -- -- -- 0 943.4 1 23
2019-08-12 23:00:00 22.3 -- -- -- -- 0 943.3 1.3 23
2019-08-12 22:00:00 23.7 -- -- -- -- 0 942.7 0.7 21
2019-08-12 21:00:00 25.4 -- -- -- -- 0 942.4 0.3 18
2019-08-12 20:00:00 26.4 -- -- -- -- 0 942 -0.5 17
2019-08-12 19:00:00 27.7 -- -- -- -- 0 942 -0.9 13
2019-08-12 18:00:00 28 -- -- -- -- 0 942.1 -1.3 12
2019-08-12 17:00:00 27.9 -- -- -- -- 0 942.5 -1.3 13
2019-08-12 16:00:00 27.7 -- -- -- -- 0 942.9 -1.4 15
2019-08-12 15:00:00 27 -- -- -- -- 0 943.4 -0.7 17
2019-08-12 14:00:00 25.5 -- -- -- -- 0 943.8 -0.2 24
2019-08-12 13:00:00 23.6 -- -- -- -- 0 944.3 0.5 30
2019-08-12 12:00:00 21.2 -- -- -- -- 0 944.1 0.5 37
2019-08-12 11:00:00 19.4 -- -- -- -- 0 944 0.7 43
2019-08-12 10:00:00 17.4 -- -- -- -- 0 943.8 0.7 52
2019-08-12 09:00:00 15.2 -- -- -- -- 0 943.6 0.4 61
2019-08-12 08:00:00 12.7 -- -- -- -- 0 943.3 0 71
2019-08-12 07:00:00 12.4 -- -- -- -- 0 943.1 -0.6 72
2019-08-12 06:00:00 13.2 -- -- -- -- 0 943.2 -1 68
2019-08-12 05:00:00 14.1 -- -- -- -- 0 943.3 -1.2 65
2019-08-12 04:00:00 14.7 -- -- -- -- 0 943.7 -0.7 61
2019-08-12 03:00:00 15.6 -- -- -- -- 0 944.2 -0.2 55
2019-08-12 02:00:00 16.9 -- -- -- -- 0 944.5 0.2 47
2019-08-12 01:00:00 18.4 -- -- -- -- 0 944.4 0.7 40
2019-08-12 00:00:00 19.4 -- -- -- -- 0 944.4 1 37
2019-08-11 23:00:00 20.5 -- -- -- -- 0 944.3 1.1 32
2019-08-11 22:00:00 21 -- -- -- -- 0 943.7 0.5 28
2019-08-11 21:00:00 23 -- -- -- -- 0 943.4 0 23
2019-08-11 20:00:00 24.7 -- -- -- -- 0 943.2 -0.3 23
2019-08-11 19:00:00 26.3 -- -- -- -- 0 943.2 -0.7 19
2019-08-11 18:00:00 27.1 -- -- -- -- 0 943.4 -0.9 19
2019-08-11 17:00:00 28 -- -- -- -- 0 943.5 -1 14
2019-08-11 16:00:00 27.5 -- -- -- -- 0 943.9 -0.9 15
2019-08-11 15:00:00 27.2 -- -- -- -- 0 944.3 -0.3 13
2019-08-11 14:00:00 26.5 -- -- -- -- 0 944.5 0.1 18
2019-08-11 13:00:00 24.1 -- -- -- -- 0 944.8 0.5 23
2019-08-11 12:00:00 22 -- -- -- -- 0 944.6 0.8 35
2019-08-11 11:00:00 20.4 -- -- -- -- 0 944.4 0.9 43
2019-08-11 10:00:00 17.3 -- -- -- -- 0 944.3 1.2 53
2019-08-11 09:00:00 15.6 -- -- -- -- 0 943.8 0.7 62
2019-08-11 08:00:00 14 -- -- -- -- 0 943.5 0.7 69
2019-08-11 07:00:00 14.3 -- -- -- -- 0 943.1 -0.2 66
2019-08-11 06:00:00 15.2 -- -- -- -- 0 943.1 -0.5 66
2019-08-11 05:00:00 15.6 -- -- -- -- 0 942.8 -1.1 60
2019-08-11 04:00:00 16.3 -- -- -- -- 0 943.3 -0.4 61
2019-08-11 03:00:00 17.5 -- -- -- -- 0 943.6 0.1 63
2019-08-11 02:00:00 18.8 -- -- -- -- 0 943.9 0.3 56
2019-08-11 01:00:00 20.3 -- -- -- -- 0 943.7 0.9 47
2019-08-11 00:00:00 21.3 -- -- -- -- 0 943.5 1.2 42
2019-08-10 23:00:00 23 -- -- -- -- 0 943.6 1.6 33
2019-08-10 22:00:00 24.7 -- -- -- -- 0 942.8 0.8 23
2019-08-10 21:00:00 27.6 -- -- -- -- 0 942.3 -0.1 18
2019-08-10 20:00:00 29.9 -- -- -- -- 0 942 -1 20
2019-08-10 19:00:00 31.7 -- -- -- -- 0 942 -2 23
2019-08-10 18:00:00 32.3 -- -- -- -- 0 942.4 -2.2 23
2019-08-10 17:00:00 31.5 -- -- -- -- 0 943 -2.2 24
2019-08-10 16:00:00 31 -- -- -- -- 0 944 -1.6 25
2019-08-10 15:00:00 30.1 -- -- -- -- 0 944.6 -1 26
2019-08-10 14:00:00 28 -- -- -- -- 0 945.2 -0.2 31
2019-08-10 13:00:00 26.4 -- -- -- -- 0 945.6 0.2 38
2019-08-10 12:00:00 24.3 -- -- -- -- 0 945.6 0.2 44
2019-08-10 11:00:00 22.6 -- -- -- -- 0 945.4 0.3 51
2019-08-10 10:00:00 21 -- -- -- -- 0 945.4 0.4 56
2019-08-10 09:00:00 18.9 -- -- -- -- 0 945.4 0.6 67
2019-08-10 08:00:00 16.7 -- -- -- -- 0 945.1 0.3 76
2019-08-10 07:00:00 16.8 -- -- -- -- 0 945 0.4 76
2019-08-10 06:00:00 17.3 -- -- -- -- 0 944.8 0 73
2019-08-10 05:00:00 18.2 -- -- -- -- 0 944.8 -0.2 67
2019-08-10 04:00:00 18.8 -- -- -- -- 0 944.6 -0.4 65
2019-08-10 03:00:00 19.3 -- -- -- -- 0 944.8 -0.1 61
2019-08-10 02:00:00 20 -- -- -- -- 0 945 0.5 60
2019-08-10 01:00:00 20.9 -- -- -- -- 0 945 1.5 71
2019-08-10 00:00:00 21.7 -- -- -- -- 0 944.9 2 68
2019-08-09 23:00:00 22.7 -- -- -- -- 0 944.5 1.9 65
2019-08-09 22:00:00 24.5 -- -- -- -- 0 943.5 0.9 61
2019-08-09 21:00:00 26.6 -- -- -- -- 0 942.9 0.2 54
2019-08-09 20:00:00 28.8 -- -- -- -- 0 942.6 -0.2 47
2019-08-09 19:00:00 30.6 -- -- -- -- 0 942.6 -0.6 43
2019-08-09 18:00:00 32 -- -- -- -- 0 942.7 -0.8 36
2019-08-09 17:00:00 32.3 -- -- -- -- 0 942.8 -1 36
2019-08-09 16:00:00 32.6 -- -- -- -- 0 943.2 -0.8 33
2019-08-09 15:00:00 32.9 -- -- -- -- 0 943.5 -0.5 30
2019-08-09 14:00:00 30.5 -- -- -- -- 0 943.8 -0.1 37
2019-08-09 13:00:00 29.6 -- -- -- -- 0 944 0.5 41
2019-08-09 12:00:00 27 -- -- -- -- 0 944 1 50
2019-08-09 11:00:00 25.1 -- -- -- -- 0 943.9 1.2 57
2019-08-09 10:00:00 22.3 -- -- -- -- 0 943.5 1 70
2019-08-09 09:00:00 20 -- -- -- -- 0 943 0.7 83
2019-08-09 08:00:00 18 -- -- -- -- 0 942.7 0.3 88
2019-08-09 07:00:00 18 -- -- -- -- 0 942.5 0 84
2019-08-09 06:00:00 18.8 -- -- -- -- 0 942.3 -0.1 81
2019-08-09 05:00:00 19.5 -- -- -- -- 0 942.4 0 76
2019-08-09 04:00:00 20.4 -- -- -- -- 0 942.5 0.2 66
2019-08-09 03:00:00 21 -- -- -- -- 0 942.4 0.3 67
2019-08-09 02:00:00 21.9 -- -- -- -- 0 942.4 0.9 64
2019-08-09 01:00:00 23.2 -- -- -- -- 0 942.3 1.8 64
2019-08-09 00:00:00 24.6 -- -- -- -- 0 942.1 2.2 48
2019-08-08 23:00:00 25.8 -- -- -- -- 0 941.5 1.9 40
2019-08-08 22:00:00 27.7 -- -- -- -- 0 940.5 0.7 37
2019-08-08 21:00:00 30.3 -- -- -- -- 0 939.9 0 27
2019-08-08 20:00:00 33.9 -- -- -- -- 0 939.6 -0.5 21
2019-08-08 19:00:00 35.5 -- -- -- -- 0 939.8 -1 13
2019-08-08 18:00:00 35.8 -- -- -- -- 0 939.9 -1.2 12
2019-08-08 17:00:00 35.6 -- -- -- -- 0 940.1 -1.4 15
2019-08-08 16:00:00 35.3 -- -- -- -- 0 940.8 -1.2 16
2019-08-08 15:00:00 34.1 -- -- -- -- 0 941.1 -0.9 19
2019-08-08 14:00:00 32.4 -- -- -- -- 0 941.5 -0.5 24
2019-08-08 13:00:00 31.4 -- -- -- -- 0 942 0.2 24
2019-08-08 12:00:00 29.3 -- -- -- -- 0 942 0.4 29
2019-08-08 11:00:00 26 -- -- -- -- 0 942 0.6 45
2019-08-08 10:00:00 23.9 -- -- -- -- 0 941.8 0.4 51
2019-08-08 09:00:00 21.9 -- -- -- -- 0 941.6 0.5 62
2019-08-08 08:00:00 19.1 -- -- -- -- 0 941.4 0 70
2019-08-08 07:00:00 18.5 -- -- -- -- 0 941.4 -0.2 68
2019-08-08 06:00:00 18.8 -- -- -- -- 0 941.1 -0.6 65
2019-08-08 05:00:00 19.7 -- -- -- -- 0 941.4 -0.6 61
2019-08-08 04:00:00 20.4 -- -- -- -- 0 941.6 -0.4 56
2019-08-08 03:00:00 20.5 -- -- -- -- 0 941.7 -0.2 57
2019-08-08 02:00:00 21.1 -- -- -- -- 0 942 0.2 55
2019-08-08 01:00:00 21.3 -- -- -- -- 0 942 0.6 54
2019-08-08 00:00:00 21.3 -- -- -- -- 0 941.9 0.8 54
2019-08-07 23:00:00 21.7 -- -- -- -- 0 941.8 0.7 52
2019-08-07 22:00:00 23.4 -- -- -- -- 0 941.4 0.6 47
2019-08-07 21:00:00 24.8 -- -- -- -- 0 941.1 0.3 42
2019-08-07 20:00:00 25.8 -- -- -- -- 0 941.1 -0.4 41
2019-08-07 19:00:00 25.4 -- -- -- -- 0 940.8 -0.5 39
2019-08-07 18:00:00 26.4 -- -- -- -- 0 940.8 -0.8 34
2019-08-07 17:00:00 28.6 -- -- -- -- 0 941.5 0 30
2019-08-07 16:00:00 27.1 -- -- -- -- 0 941.3 -0.4 33
2019-08-07 15:00:00 26.7 -- -- -- -- 0 941.6 -0.1 33
2019-08-07 14:00:00 27 -- -- -- -- 0 941.5 0.5 35
2019-08-07 13:00:00 28.2 -- -- -- -- 0 941.7 1.4 36
2019-08-07 12:00:00 26 -- -- -- -- 0 941.7 1.7 39
2019-08-07 11:00:00 26.4 -- -- -- -- 0 941 1.3 43
2019-08-07 10:00:00 22.7 -- -- -- -- 0 940.3 1 57
2019-08-07 09:00:00 19.5 -- -- -- -- 0 940 0.7 72
2019-08-07 08:00:00 18.3 -- -- -- -- 0 939.7 0.4 76
2019-08-07 07:00:00 18.9 -- -- -- -- 0 939.3 -0.2 73
2019-08-07 06:00:00 19.3 -- -- -- -- 0 939.3 -0.4 72
2019-08-07 05:00:00 19.8 -- -- -- -- 0 939.3 -0.5 68
2019-08-07 04:00:00 20.2 -- -- -- -- 0 939.5 -0.7 64
2019-08-07 03:00:00 21 -- -- -- -- 0 939.7 -0.4 60
2019-08-07 02:00:00 22 -- -- -- -- 0 939.8 0.1 55
2019-08-07 01:00:00 22.9 -- -- -- -- 0 940.2 1.2 49
2019-08-07 00:00:00 24.2 -- -- -- -- 0 940.1 1.6 39
2019-08-06 23:00:00 25.9 -- -- -- -- 0 939.7 1.5 33
2019-08-06 22:00:00 27.4 -- -- -- -- 0 939 0.9 28
2019-08-06 21:00:00 29.6 -- -- -- -- 0 938.5 0.3 24
2019-08-06 20:00:00 32.2 -- -- -- -- 0 938.2 -0.3 20
2019-08-06 19:00:00 33.9 -- -- -- -- 0 938.1 -1.2 19
2019-08-06 18:00:00 36.5 -- -- -- -- 0 938.2 -1.7 14
2019-08-06 17:00:00 36.7 -- -- -- -- 0 938.5 -2 12
2019-08-06 16:00:00 36.3 -- -- -- -- 0 939.3 -1.6 12
2019-08-06 15:00:00 35.5 -- -- -- -- 0 939.9 -1 13
2019-08-06 14:00:00 34.4 -- -- -- -- 0 940.5 -0.7 14
2019-08-06 13:00:00 32.9 -- -- -- -- 0 940.9 -0.2 17
2019-08-06 12:00:00 31.2 -- -- -- -- 0 940.9 -0.5 20
2019-08-06 11:00:00 28.7 -- -- -- -- 0 941.2 0.6 24
2019-08-06 10:00:00 24.7 -- -- -- -- 0 941.1 0.8 34
2019-08-06 09:00:00 21.2 -- -- -- -- 0 941.4 1 46
2019-08-06 08:00:00 21.1 -- -- -- -- 0 940.6 -0.2 42
2019-08-06 07:00:00 20.1 -- -- -- -- 0 940.3 -0.6 46
2019-08-06 06:00:00 20.5 -- -- -- -- 0 940.4 -0.8 47
2019-08-06 05:00:00 20.5 -- -- -- -- 0 940.8 -0.6 46
2019-08-06 04:00:00 20.7 -- -- -- -- 0 940.9 -0.4 42
2019-08-06 03:00:00 21 -- -- -- -- 0 941.2 0 44
2019-08-06 02:00:00 22.1 -- -- -- -- 0 941.4 0.6 37
2019-08-06 01:00:00 23.5 -- -- -- -- 0 941.3 1.2 31
2019-08-06 00:00:00 24.6 -- -- -- -- 0 941.2 1.7 22
2019-08-05 23:00:00 26 -- -- -- -- 0 940.8 1.6 19
2019-08-05 22:00:00 28 -- -- -- -- 0 940.1 1 14
2019-08-05 21:00:00 30.7 -- -- -- -- 0 939.5 0.5 14
2019-08-05 20:00:00 33.5 -- -- -- -- 0 939.2 -0.1 14
2019-08-05 19:00:00 35.5 -- -- -- -- 0 939.1 -0.8 13
2019-08-05 18:00:00 36.5 -- -- -- -- 0 939 -1.4 12
2019-08-05 17:00:00 37.2 -- -- -- -- 0 939.3 -1.6 12
2019-08-05 16:00:00 36.8 -- -- -- -- 0 939.9 -1.7 13
2019-08-05 15:00:00 35.2 -- -- -- -- 0 940.4 -1.5 15
2019-08-05 14:00:00 34.7 -- -- -- -- 0 940.9 -1 16
2019-08-05 13:00:00 33.5 -- -- -- -- 0 941.6 -0.3 16
2019-08-05 12:00:00 31.7 -- -- -- -- 0 941.9 0.2 21
2019-08-05 11:00:00 29.8 -- -- -- -- 0 941.9 0.4 24
2019-08-05 10:00:00 26.1 -- -- -- -- 0 941.9 0.5 32
2019-08-05 09:00:00 24 -- -- -- -- 0 941.7 0.4 40
2019-08-05 08:00:00 19.5 -- -- -- -- 0 941.5 0 57
2019-08-05 07:00:00 18 -- -- -- -- 0 941.4 -0.4 63
2019-08-05 06:00:00 19.2 -- -- -- -- 0 941.3 -0.7 61
2019-08-05 05:00:00 19.6 -- -- -- -- 0 941.5 -0.9 59
2019-08-05 04:00:00 19.9 -- -- -- -- 0 941.8 -0.6 58
2019-08-05 03:00:00 20.7 -- -- -- -- 0 942 0 56
2019-08-05 02:00:00 21.6 -- -- -- -- 0 942.4 0.7 54
2019-08-05 01:00:00 23.2 -- -- -- -- 0 942.4 1.3 50
2019-08-05 00:00:00 24.9 -- -- -- -- 0 942 1.5 39
2019-08-04 23:00:00 26.6 -- -- -- -- 0 941.7 1.6 30
2019-08-04 22:00:00 28.7 -- -- -- -- 0 941.1 1 25
2019-08-04 21:00:00 31.3 -- -- -- -- 0 940.5 0.4 20
2019-08-04 20:00:00 33.3 -- -- -- -- 0 940.1 -0.2 19
2019-08-04 19:00:00 34.4 -- -- -- -- 0 940.1 -0.8 16
2019-08-04 18:00:00 35.2 -- -- -- -- 0 940.1 -1.2 14
2019-08-04 17:00:00 35.5 -- -- -- -- 0 940.3 -1.2 14
2019-08-04 16:00:00 34.5 -- -- -- -- 0 940.9 -1.1 16
2019-08-04 15:00:00 34.3 -- -- -- -- 0 941.3 -0.7 15
2019-08-04 14:00:00 33 -- -- -- -- 0 941.5 -0.5 18
2019-08-04 13:00:00 31.8 -- -- -- -- 0 942 0.1 22
2019-08-04 12:00:00 31 -- -- -- -- 0 942 0.3 23
2019-08-04 11:00:00 29.3 -- -- -- -- 0 942 0.7 28
2019-08-04 10:00:00 25.5 -- -- -- -- 0 941.9 0.9 41
2019-08-04 09:00:00 21.8 -- -- -- -- 0 941.7 0.6 54
2019-08-04 08:00:00 20.4 -- -- -- -- 0 941.3 0.2 56
2019-08-04 07:00:00 19.8 -- -- -- -- 0 941 -0.1 59
2019-08-04 06:00:00 19.6 -- -- -- -- 0 941.1 -0.1 62
2019-08-04 05:00:00 20.2 -- -- -- -- 0 941.1 -0.2 60
2019-08-04 04:00:00 20.9 -- -- -- -- 0 941.1 -0.1 52
2019-08-04 03:00:00 21.6 -- -- -- -- 0 941.2 0.2 44
2019-08-04 02:00:00 22.6 -- -- -- -- 0 941.3 0.5 42
2019-08-04 01:00:00 24.3 -- -- -- -- 0 941.2 1 31
2019-08-04 00:00:00 24.9 -- -- -- -- 0 941 1.4 28
2019-08-03 23:00:00 25.7 -- -- -- -- 0 940.8 1.5 27
2019-08-03 22:00:00 27.7 -- -- -- -- 0 940.2 0.9 21
2019-08-03 21:00:00 30.3 -- -- -- -- 0 939.6 0.2 18
2019-08-03 20:00:00 32.6 -- -- -- -- 0 939.3 -0.6 17
2019-08-03 19:00:00 34.4 -- -- -- -- 0 939.3 -1 15
2019-08-03 18:00:00 35.5 -- -- -- -- 0 939.4 -1.1 14
2019-08-03 17:00:00 35.5 -- -- -- -- 0 939.9 -1 15
2019-08-03 16:00:00 35.6 -- -- -- -- 0 940.3 -0.9 13
2019-08-03 15:00:00 34.8 -- -- -- -- 0 940.5 -0.6 12
2019-08-03 14:00:00 34.1 -- -- -- -- 0 940.9 -0.2 14
2019-08-03 13:00:00 33.1 -- -- -- -- 0 941.2 0.1 13
2019-08-03 12:00:00 31.5 -- -- -- -- 0 941.1 0.1 15
2019-08-03 11:00:00 30.1 -- -- -- -- 0 941.1 0.4 23
2019-08-03 10:00:00 28 -- -- -- -- 0 941.1 0.7 30
2019-08-03 09:00:00 25.1 -- -- -- -- 0 941 0.7 39
2019-08-03 08:00:00 20.7 -- -- -- -- 0 940.7 0.2 48
2019-08-03 07:00:00 20.1 -- -- -- -- 0 940.4 -0.2 53
2019-08-03 06:00:00 19.8 -- -- -- -- 0 940.3 -0.5 57
2019-08-03 05:00:00 20.3 -- -- -- -- 0 940.5 -0.4 50
2019-08-03 04:00:00 21 -- -- -- -- 0 940.6 -0.4 50
2019-08-03 03:00:00 21.5 -- -- -- -- 0 940.8 -0.3 38
2019-08-03 02:00:00 23.4 -- -- -- -- 0 940.9 0 29
2019-08-03 01:00:00 23.7 -- -- -- -- 0 941 0.6 26
2019-08-03 00:00:00 24.6 -- -- -- -- 0 941.1 1.1 23
2019-08-02 23:00:00 25.6 -- -- -- -- 0 940.9 1.1 23
2019-08-02 22:00:00 28.1 -- -- -- -- 0 940.4 0.6 21
2019-08-02 21:00:00 31.4 -- -- -- -- 0 940 0.1 17
2019-08-02 20:00:00 33.7 -- -- -- -- 0 939.8 -0.5 14
2019-08-02 19:00:00 34.5 -- -- -- -- 0 939.8 -0.8 12
2019-08-02 18:00:00 34.4 -- -- -- -- 0 939.9 -1 12
2019-08-02 17:00:00 35.1 -- -- -- -- 0 940.3 -0.9 11
2019-08-02 16:00:00 36.3 -- -- -- -- 0 940.6 -1 9
2019-08-02 15:00:00 34.5 -- -- -- -- 0 940.9 -0.9 11
2019-08-02 14:00:00 33.8 -- -- -- -- 0 941.2 -0.4 11
2019-08-02 13:00:00 32.8 -- -- -- -- 0 941.6 0.2 11
2019-08-02 12:00:00 31.4 -- -- -- -- 0 941.8 0.6 14
2019-08-02 11:00:00 29 -- -- -- -- 0 941.6 0.6 18
2019-08-02 10:00:00 25.6 -- -- -- -- 0 941.4 0.5 25
2019-08-02 09:00:00 22.1 -- -- -- -- 0 941.2 0.5 38
2019-08-02 08:00:00 18 -- -- -- -- 0 941 0 51
2019-08-02 07:00:00 17.7 -- -- -- -- 0 940.9 -0.2 50
2019-08-02 06:00:00 19.4 -- -- -- -- 0 940.7 -0.6 39
2019-08-02 05:00:00 18.8 -- -- -- -- 0 941 -0.6 45
2019-08-02 04:00:00 18.9 -- -- -- -- 0 941.1 -0.5 45
2019-08-02 03:00:00 20.1 -- -- -- -- 0 941.3 0 41
2019-08-02 02:00:00 21.4 -- -- -- -- 0 941.6 0.9 38
2019-08-02 01:00:00 22.6 -- -- -- -- 0 941.6 1.8 34
2019-08-02 00:00:00 24.5 -- -- -- -- 0 941.3 2 28
2019-08-01 23:00:00 26.1 -- -- -- -- 0 940.7 1.9 23
2019-08-01 22:00:00 27.8 -- -- -- -- 0 939.8 0.9 22
2019-08-01 21:00:00 30.4 -- -- -- -- 0 939.3 0.3 19
2019-08-01 20:00:00 32.8 -- -- -- -- 0 938.8 -0.3 13
2019-08-01 19:00:00 33.3 -- -- -- -- 0 938.9 -0.5 12
2019-08-01 18:00:00 33.8 -- -- -- -- 0 939 -0.7 13
2019-08-01 17:00:00 34.2 -- -- -- -- 0 939.1 -0.8 14
2019-08-01 16:00:00 34.5 -- -- -- -- 0 939.4 -1 14
2019-08-01 15:00:00 33.7 -- -- -- -- 0 939.7 -0.6 16
2019-08-01 14:00:00 33.3 -- -- -- -- 0 939.9 -- 15
2019-08-01 13:00:00 32 -- -- -- -- -- 940.4 -- 18
2019-08-01 12:00:00 30.3 -- -- -- -- -- 940.3 -- 22
2019-08-01 11:00:00 -- -- -- -- -- -- -- -- --
2019-08-01 10:00:00 -- -- -- -- -- -- -- -- --
2019-08-01 09:00:00 -- -- -- -- -- -- -- -- --
2019-08-01 08:00:00 -- -- -- -- -- -- -- -- --
2019-08-01 07:00:00 -- -- -- -- -- -- -- -- --
2019-08-01 06:00:00 -- -- -- -- -- -- -- -- --
2019-08-01 05:00:00 -- -- -- -- -- -- -- -- --
2019-08-01 04:00:00 -- -- -- -- -- -- -- -- --
2019-08-01 03:00:00 -- -- -- -- -- -- -- -- --
2019-08-01 02:00:00 -- -- -- -- -- -- -- -- --
2019-08-01 01:00:00 -- -- -- -- -- -- -- -- --
2019-08-01 00:00:00 -- -- -- -- -- -- -- -- --
2019-07-31 23:00:00 -- -- -- -- -- -- -- -- --
2019-07-31 22:00:00 -- -- -- -- -- -- -- -- --
2019-07-31 21:00:00 -- -- -- -- -- -- -- -- --
2019-07-31 20:00:00 -- -- -- -- -- -- -- -- --
2019-07-31 19:00:00 -- -- -- -- -- -- -- -- --
2019-07-31 18:00:00 -- -- -- -- -- -- -- -- --
2019-07-31 17:00:00 -- -- -- -- -- -- -- -- --
2019-07-31 16:00:00 -- -- -- -- -- -- -- -- --
2019-07-31 15:00:00 -- -- -- -- -- -- -- -- --
2019-07-31 14:00:00 -- -- -- -- -- -- -- -- --
2019-07-31 13:00:00 -- -- -- -- -- -- -- -- --
2019-07-31 12:00:00 26.7 -- -- -- -- -- 993.2 -- 35
2019-07-31 11:00:00 -- -- -- -- -- -- -- -- --
2019-07-31 10:00:00 -- -- -- -- -- -- -- -- --
2019-07-31 09:00:00 -- -- -- -- -- -- -- -- --
2019-07-31 08:00:00 -- -- -- -- -- -- -- -- --
2019-07-31 07:00:00 -- -- -- -- -- -- -- -- --
2019-07-31 06:00:00 -- -- -- -- -- -- -- -- --
2019-07-31 05:00:00 -- -- -- -- -- -- -- -- --
2019-07-31 04:00:00 -- -- -- -- -- -- -- -- --
2019-07-31 03:00:00 -- -- -- -- -- -- -- -- --
2019-07-31 02:00:00 -- -- -- -- -- -- -- -- --
2019-07-31 01:00:00 -- -- -- -- -- -- -- -- --
2019-07-31 00:00:00 -- -- -- -- -- -- -- -- --
2019-07-30 23:00:00 -- -- -- -- -- -- -- -- --
2019-07-30 22:00:00 -- -- -- -- -- -- -- -- --
2019-07-30 21:00:00 -- -- -- -- -- -- -- -- --
2019-07-30 20:00:00 -- -- -- -- -- -- -- -- --
2019-07-30 19:00:00 -- -- -- -- -- -- -- -- --
2019-07-30 18:00:00 -- -- -- -- -- -- -- -- --
2019-07-30 17:00:00 -- -- -- -- -- -- -- -- --
2019-07-30 16:00:00 -- -- -- -- -- -- -- -- --
2019-07-30 15:00:00 -- -- -- -- -- -- -- -- --
2019-07-30 14:00:00 -- -- -- -- -- -- -- -- --
2019-07-30 13:00:00 -- -- -- -- -- -- -- -- --
2019-07-30 12:00:00 -- -- -- -- -- -- -- -- --
2019-07-30 11:00:00 -- -- -- -- -- -- -- -- --
2019-07-30 10:00:00 -- -- -- -- -- -- -- -- --
2019-07-30 09:00:00 -- -- -- -- -- -- -- -- --
2019-07-30 08:00:00 -- -- -- -- -- -- -- -- --
2019-07-30 07:00:00 -- -- -- -- -- -- -- -- --
2019-07-30 06:00:00 -- -- -- -- -- -- -- -- --
2019-07-30 05:00:00 -- -- -- -- -- -- -- -- --
2019-07-30 04:00:00 -- -- -- -- -- -- -- -- --
2019-07-30 03:00:00 -- -- -- -- -- -- -- -- --
2019-07-30 02:00:00 -- -- -- -- -- -- -- -- --
2019-07-30 01:00:00 -- -- -- -- -- -- -- -- --
2019-07-30 00:00:00 -- -- -- -- -- -- -- -- --
2019-07-29 23:00:00 -- -- -- -- -- -- -- -- --
2019-07-29 22:00:00 -- -- -- -- -- -- -- -- --
2019-07-29 21:00:00 -- -- -- -- -- -- -- -- --
2019-07-29 20:00:00 28.6 -- -- -- -- 0 939.1 0.2 23
2019-07-29 19:00:00 30.3 -- -- -- -- 0 938.9 -0.3 23
2019-07-29 18:00:00 31.5 -- -- -- -- 0 938.8 -0.8 28
2019-07-29 17:00:00 32 -- -- -- -- 0 938.9 -1 25
2019-07-29 16:00:00 31.5 -- -- -- -- 0 939.2 -1 23
2019-07-29 15:00:00 30.5 -- -- -- -- 0 939.6 -0.5 25
2019-07-29 14:00:00 29.4 -- -- -- -- 0 939.9 0.1 27
2019-07-29 13:00:00 27.9 -- -- -- -- 0 940.2 0.5 26
2019-07-29 12:00:00 26.1 -- -- -- -- 0 940.1 0.8 25
2019-07-29 11:00:00 23.3 -- -- -- -- -- 939.8 1.2 27
2019-07-29 10:00:00 20.4 -- -- -- -- 0 939.7 1.4 31
2019-07-29 09:00:00 18.3 -- -- -- -- 0 939.3 1.1 39
2019-07-29 08:00:00 16.5 -- -- -- -- 0 938.6 0.6 57
2019-07-29 07:00:00 16.5 -- -- -- -- 0 938.3 0.2 62
2019-07-29 06:00:00 17.4 -- -- -- -- 0 938.2 -0.2 64
2019-07-29 05:00:00 17.9 -- -- -- -- 0 938 -0.3 63
2019-07-29 04:00:00 18.8 -- -- -- -- 0 938.1 0.2 57
2019-07-29 03:00:00 19.6 -- -- -- -- 0 938.4 0.5 53
2019-07-29 02:00:00 21 -- -- -- -- 0 938.3 0.6 48
2019-07-29 01:00:00 22.9 -- -- -- -- 0 937.9 1 43
2019-07-29 00:00:00 23.7 -- -- -- -- 0 937.9 1.4 37
2019-07-28 23:00:00 24.1 -- -- -- -- 0 937.7 1.5 37
2019-07-28 22:00:00 26.3 -- -- -- -- 0 936.9 0.9 31
2019-07-28 21:00:00 28.5 -- -- -- -- 0 936.5 0.2 26
2019-07-28 20:00:00 29.7 -- -- -- -- 0 936.2 -0.4 25
2019-07-28 19:00:00 30.6 -- -- -- -- 0 936 -1.1 25
2019-07-28 18:00:00 31.1 -- -- -- -- 0 936.3 -1.1 24
2019-07-28 17:00:00 30.9 -- -- -- -- 0 936.6 -1 25
2019-07-28 16:00:00 30.1 -- -- -- -- 0 937.1 -0.9 27
2019-07-28 15:00:00 26.9 -- -- -- -- 0 937.4 -0.7 34
2019-07-28 14:00:00 25.6 -- -- -- -- 0 937.6 -0.5 38
2019-07-28 13:00:00 25.1 -- -- -- -- 0 938 -0.2 42
2019-07-28 12:00:00 24.8 -- -- -- -- 0 938.1 0.1 45
2019-07-28 11:00:00 23.4 -- -- -- -- 0 938.1 0.3 50
2019-07-28 10:00:00 21.2 -- -- -- -- 0 938.2 0.5 60
2019-07-28 09:00:00 18.6 -- -- -- -- 0 938 0.6 75
2019-07-28 08:00:00 15.9 -- -- -- -- 0 937.8 0.4 84
2019-07-28 07:00:00 15.1 -- -- -- -- 0 937.7 0 85
2019-07-28 06:00:00 14.9 -- -- -- -- 0 937.4 -0.6 86
2019-07-28 05:00:00 15 -- -- -- -- 0 937.4 -0.7 88
2019-07-28 04:00:00 15.5 -- -- -- -- 0 937.7 -0.6 86
2019-07-28 03:00:00 16 -- -- -- -- 0 938 -0.4 83
2019-07-28 02:00:00 17 -- -- -- -- 0 938.1 0 80
2019-07-28 01:00:00 17.9 -- -- -- -- 0 938.3 0.9 76
2019-07-28 00:00:00 18.8 -- -- -- -- 0 938.4 1.3 73
2019-07-27 23:00:00 19.7 -- -- -- -- 0 938.1 1.3 73
2019-07-26 12:00:00 23.3 -- -- -- -- 0 941.1 0.1 42
2019-07-26 11:00:00 20.1 -- -- -- -- 0 941.3 0.9 53
2019-07-26 10:00:00 18.3 -- -- -- -- 0 941.2 0.8 67
2019-07-26 09:00:00 17.5 -- -- -- -- 0 941 0.7 72
2019-07-26 08:00:00 16.3 -- -- -- -- 0 940.4 -0.1 73
2019-07-26 07:00:00 16.7 -- -- -- -- 0 940.4 -0.3 85
2019-07-26 06:00:00 17.7 -- -- -- -- 0 940.3 -0.5 86
2019-07-26 05:00:00 18.4 -- -- -- -- 0 940.5 -0.6 83
2019-07-26 04:00:00 19.4 -- -- -- -- 0 940.7 -0.4 81
2019-07-26 03:00:00 20.6 -- -- -- -- 0 940.8 0 77
2019-07-26 02:00:00 21.4 -- -- -- -- 0 941.1 0.8 73
2019-07-26 01:00:00 22.1 -- -- -- -- 0 941.1 1.4 70
2019-07-26 00:00:00 25 -- -- -- -- 0 940.8 1.2 52